Nearby METAR Reports - 80 Mile Radius
Meteorological Terminal Air Report (METAR)


KBWI - Balto/Wash Intl Airport, Maryland
Distance from station: S 5mi, 8km
Updated: Tue, 27-Jul-2021 12:54pm EDT
Partly Cloudy
Partly Cloudy
 Wind from NNW
Wind: NNW 9 mph , 15 km/h, Gust: 17 mph , 28 km/h
Temperature: 95°F , 35°C
Dew Point: 61°F , 16°C
Humidity: 32%
Barometer: 29.97 inHg , 1014.9 hPa
Clouds: Partly Cloudy
Visibility: 10 miles , 16 km
Cloud details: Partly Cloudy 6000 ft
2021/07/27 16:54 KBWI 271654Z 33008G15KT 10SM SCT060 35/16 A2997 RMK AO2 SLP146 T03500161
KFME - Fort Meade/Tipton AAF, Maryland
Distance from station: SSW 11mi, 18km
Updated: Tue, 27-Jul-2021 12:55pm EDT

 Wind from NW
Wind: NW 6 mph , 9 km/h
Temperature: 90°F , 32°C
Dew Point: 61°F , 16°C
Humidity: 38%
Barometer: 30.00 inHg , 1015.9 hPa
Visibility: 10 miles , 16 km
2021/07/27 16:55 KFME 271655Z AUTO 31005KT 10SM 32/16 A3000 RMK AO1
KMTN - Balto/Martin State Airport, Maryland
Distance from station: ENE 16mi, 26km
Updated: Tue, 27-Jul-2021 11:54am EDT
NOT Current
Partly Cloudy
Partly Cloudy
 Wind from ESE
Wind: ESE 7 mph , 11 km/h
Temperature: 88°F , 31°C
Heat Index: 96°F , 36°C
Dew Point: 73°F , 23°C
Humidity: 62%
Barometer: 30.00 inHg , 1015.9 hPa
Clouds: Partly Cloudy
Visibility: 7 miles , 11 km
Cloud details: Partly Cloudy 5000 ft
2021/07/27 15:54 KMTN 271554Z 12006KT 7SM SCT050 31/23 A3000
 
KCGS - College Park Airport, Maryland
Distance from station: SSW 21mi, 34km
Updated: Tue, 27-Jul-2021 12:55pm EDT
Partly Cloudy
Partly Cloudy
 Wind from N
Wind: N 8 mph , 13 km/h
Temperature: 91°F , 33°C
Dew Point: 59°F , 15°C
Humidity: 34%
Barometer: 29.98 inHg , 1015.2 hPa
Clouds: Partly Cloudy
Visibility: 10 miles , 16 km
Cloud details: Partly Cloudy 6500 ft
2021/07/27 16:55 KCGS 271655Z AUTO 35007KT 10SM SCT065 33/15 A2998 RMK AO1 T03260154
KNAK - Annapolis/Naval Academy, Maryland
Distance from station: SE 21mi, 34km
Updated: Tue, 27-Jul-2021 12:54pm EDT
Clear
Clear
 Wind from ESE
Wind: ESE 10 mph , 17 km/h
Temperature: 84°F , 29°C
Heat Index: 89°F , 32°C
Dew Point: 72°F , 22°C
Humidity: 66%
Barometer: 29.98 inHg , 1015.2 hPa
Clouds: Clear
Visibility: 8 miles , 13 km
2021/07/27 16:54 KNAK 271654Z AUTO 12009KT 8SM CLR 29/22 A2998 RMK AO2 SLP152 T02940222
KGAI - Gaithersburg/Montgomery Co Airpark, Maryland
Distance from station: W 26mi, 41km
Updated: Tue, 27-Jul-2021 12:56pm EDT
Clear
Clear
 Wind from WNW
Wind: WNW 12 mph , 19 km/h
Temperature: 90°F , 32°C
Heat Index: 91°F , 33°C
Dew Point: 63°F , 17°C
Humidity: 41%
Barometer: 30.02 inHg , 1016.6 hPa
Clouds: Clear
Visibility: 10 miles , 16 km
2021/07/27 16:56 KGAI 271656Z AUTO 30010KT 10SM CLR 32/17 A3002 RMK AO2 SLP173 T03170172
 
KW29 - Stevensville/Bay Bridge Airport, Maryland
Distance from station: SE 26mi, 42km
Updated: Sun, 28-Mar-2021 8:55am EDT
NOT Current
Nearby thunderstorm, Rain, Mist, Overcast
Nearby thunderstorm, Rain, Mist, Overcast
 Wind from ESE
Wind: ESE 6 mph , 9 km/h
Temperature: 57°F , 14°C
Barometer: 29.84 inHg , 1010.5 hPa
Summary: Nearby thunderstorm, Rain, Mist
Clouds: Overcast
Visibility: 2 miles , 3 km
Cloud details: Overcast 300 ft
2021/03/28 12:55 KW29 281255Z AUTO 12005KT 2SM VCTSRA BR OVC003 14/ A2984 RMK AO2 LTG DSNT S AND W
KDMW - Carroll Co Regional Airport, Maryland
Distance from station: NNW 30mi, 48km
Updated: Tue, 27-Jul-2021 12:55pm EDT
Clear
Clear
 Wind from W
Wind: W 6 mph , 9 km/h
Temperature: 88°F , 31°C
Heat Index: 89°F , 32°C
Dew Point: 63°F , 17°C
Humidity: 43%
Barometer: 30.02 inHg , 1016.6 hPa
Clouds: Clear
Visibility: 10 miles , 16 km
2021/07/27 16:55 KDMW 271655Z AUTO 28005KT 10SM CLR 31/17 A3002 RMK AO2
KADW - Andrews AFB, Maryland
Distance from station: SSW 30mi, 49km
Updated: Tue, 27-Jul-2021 12:56pm EDT
Mostly Cloudy
Mostly Cloudy
 Wind from calm
Wind: Calm
Temperature: 88°F , 31°C
Heat Index: 92°F , 33°C
Dew Point: 68°F , 20°C
Humidity: 52%
Barometer: 29.97 inHg , 1014.9 hPa
Clouds: Mostly Cloudy
Visibility: 10 miles , 16 km
Cloud details: Mostly Cloudy 6500 ft
Mostly Cloudy 18000 ft
2021/07/27 16:56 KADW 271656Z AUTO 00000KT 10SM BKN065 BKN180 31/20 A2997 RMK AO2 SLP153 T03140203 $
 
KAPG - Aberdeen/Phillip AAF, Maryland
Distance from station: ENE 32mi, 52km
Updated: Tue, 27-Jul-2021 12:58pm EDT
Partly Cloudy
Partly Cloudy
 Wind from calm
Wind: Calm
Temperature: 86°F , 30°C
Heat Index: 88°F , 31°C
Dew Point: 66°F , 19°C
Humidity: 52%
Barometer: 29.94 inHg , 1013.9 hPa
Clouds: Partly Cloudy
Visibility: 10 miles , 16 km
Cloud details: Partly Cloudy 5000 ft
2021/07/27 16:58 KAPG 271658Z 00000KT 10SM SCT050 30/19 A2994 RMK AO2A SLP141 T03020191 $
KDCA - Washington/Natl Airport, Washington D.C.
Distance from station: SW 32mi, 52km
Updated: Tue, 27-Jul-2021 12:52pm EDT
Partly Cloudy
Partly Cloudy
 Wind from SSE
Wind: SSE 6 mph , 9 km/h
Temperature: 90°F , 32°C
Heat Index: 94°F , 34°C
Dew Point: 68°F , 20°C
Humidity: 49%
Barometer: 29.99 inHg , 1015.6 hPa
Clouds: Partly Cloudy
Visibility: 10 miles , 16 km
Cloud details: Partly Cloudy 6000 ft
2021/07/27 16:52 KDCA 271652Z 16005KT 10SM SCT060 32/20 A2999 RMK AO2 SLP154 T03220200
KFDK - Frederick Municipal Airport, Maryland
Distance from station: WNW 38mi, 61km
Updated: Tue, 27-Jul-2021 12:47pm EDT
Clear
Clear
 Wind from varies
Wind: varies 6 mph , 9 km/h
Temperature: 91°F , 33°C
Dew Point: 54°F , 12°C
Humidity: 28%
Barometer: 30.00 inHg , 1015.9 hPa
Clouds: Clear
Visibility: 10 miles , 16 km
2021/07/27 16:47 KFDK 271647Z VRB05KT 10SM CLR 33/12 A3000
 
KDAA - Fort Belvoir/Davison AAF, Virginia
Distance from station: SW 44mi, 71km
Updated: Tue, 27-Jul-2021 12:56pm EDT
Few Clouds
Few Clouds
 Wind from SE
Wind: SE 5 mph , 7 km/h
Temperature: 90°F , 32°C
Heat Index: 96°F , 36°C
Dew Point: 70°F , 21°C
Humidity: 52%
Barometer: 29.98 inHg , 1015.2 hPa
Clouds: Few Clouds
Visibility: 10 miles , 16 km
Cloud details: Few Clouds 5500 ft
2021/07/27 16:56 KDAA 271656Z AUTO 14004KT 10SM FEW055 32/21 A2998 RMK AO2 SLP154 T03190208 $
KESN - Easton/Newnam Field Airport, Maryland
Distance from station: SE 45mi, 73km
Updated: Tue, 27-Jul-2021 12:46pm EDT
Partly Cloudy
Partly Cloudy
 Wind from N
Wind: N 6 mph , 9 km/h
Temperature: 90°F , 32°C
Heat Index: 99°F , 37°C
Dew Point: 73°F , 23°C
Humidity: 59%
Barometer: 30.01 inHg , 1016.3 hPa
Clouds: Partly Cloudy
Visibility: 10 miles , 16 km
Cloud details: Partly Cloudy 4100 ft
Partly Cloudy 6000 ft
2021/07/27 16:46 KESN 271646Z 36005KT 10SM SCT041 SCT060 32/23 A3001
KIAD - Wash DC/Dulles Intl, Virginia
Distance from station: WSW 45mi, 73km
Updated: Tue, 27-Jul-2021 12:52pm EDT
Mostly Cloudy
Mostly Cloudy
 Wind from varies
Wind: varies 3 mph , 6 km/h
Temperature: 90°F , 32°C
Heat Index: 91°F , 33°C
Dew Point: 63°F , 17°C
Humidity: 41%
Barometer: 30.00 inHg , 1015.9 hPa
Clouds: Mostly Cloudy
Visibility: 10 miles , 16 km
Cloud details: Mostly Cloudy 6500 ft
2021/07/27 16:52 KIAD 271652Z VRB03KT 10SM BKN065 32/17 A3000 RMK AO2 SLP154 T03220172
 
KJYO - Leesburg/Godfrey Field, Virginia
Distance from station: WSW 48mi, 77km
Updated: Tue, 27-Jul-2021 1:15pm EDT
Clear
Clear
 Wind from N
Wind: N 9 mph , 15 km/h
Temperature: 86°F , 30°C
Heat Index: 85°F , 29°C
Dew Point: 59°F , 15°C
Humidity: 40%
Barometer: 30.02 inHg , 1016.6 hPa
Clouds: Clear
Visibility: 10 miles , 16 km
2021/07/27 17:15 KJYO 271715Z AUTO 01008KT 330V040 10SM CLR 30/15 A3002 RMK AO2
KTHV - York Airport, Pennsylvania
Distance from station: NNW 48mi, 77km
Updated: Tue, 27-Jul-2021 12:53pm EDT
Clear
Clear
 Wind from NNW
Wind: NNW 5 mph , 7 km/h
Temperature: 88°F , 31°C
Heat Index: 88°F , 31°C
Dew Point: 61°F , 16°C
Humidity: 40%
Barometer: 30.00 inHg , 1015.9 hPa
Clouds: Clear
Visibility: 10 miles , 16 km
2021/07/27 16:53 KTHV 271653Z AUTO 33004KT 10SM CLR 31/16 A3000 RMK AO2 SLP155 T03110161
KRSP - Naval Support Fac Thurmont, Maryland, USA
Distance from station: NW 50mi, 81km
Updated: Tue, 27-Jul-2021 12:54pm EDT
Clear
Clear
 Wind from varies
Wind: varies 6 mph , 9 km/h, Gust: 16 mph , 26 km/h
Temperature: 81°F , 27°C
Heat Index: 81°F , 27°C
Dew Point: 57°F , 14°C
Humidity: 45%
Barometer: 30.09 inHg , 1019 hPa
Clouds: Clear
Visibility: 10 miles , 16 km
2021/07/27 16:54 KRSP 271654Z AUTO VRB05G14KT 10SM CLR 27/14 A3009 RMK AO2 SLP178 T02670139 TSNO PNO $
 
KRYT - Fountain Dale Airport, Pennsylvania
Distance from station: NW 52mi, 84km
Updated: Mon, 13-Nov-2017 7:53am EST
NOT Current
Mist, Overcast
Mist, Overcast
 Wind from calm
Wind: Calm
Temperature: 37°F , 3°C
Dew Point: 34°F , 1°C
Humidity: 87%
Barometer: 30.31 inHg , 1026.4 hPa
Summary: Mist
Clouds: Overcast
Visibility: 5 miles , 8 km
Cloud details: Overcast 700 ft
2017/11/13 12:53 KRYT 131253Z AUTO 00000KT 5SM BR OVC007 03/01 A3031 RMK AO2 SLP275 T00280011 TSNO $
KHEF - Manassas Municipal Airport, Virginia
Distance from station: SW 57mi, 91km
Updated: Tue, 27-Jul-2021 12:56pm EDT
Few Clouds
Few Clouds
 Wind from SSW
Wind: SSW 5 mph , 7 km/h
Temperature: 90°F , 32°C
Heat Index: 97°F , 36°C
Dew Point: 72°F , 22°C
Humidity: 55%
Barometer: 29.99 inHg , 1015.6 hPa
Clouds: Few Clouds
Visibility: 10 miles , 16 km
Cloud details: Few Clouds 6500 ft
2021/07/27 16:56 KHEF 271656Z 21004KT 10SM FEW065 32/22 A2999 RMK AO2 SLP160 T03220217
KNYG - Quantico Marine Corps Air Fac, Virginia
Distance from station: SSW 60mi, 96km
Updated: Tue, 27-Jul-2021 12:56pm EDT
Clear
Clear
 Wind from E
Wind: E 3 mph , 6 km/h
Temperature: 88°F , 31°C
Heat Index: 93°F , 34°C
Dew Point: 70°F , 21°C
Humidity: 55%
Barometer: 30.00 inHg , 1015.9 hPa
Clouds: Clear
Visibility: 4 miles , 6 km
2021/07/27 16:56 KNYG 271656Z 10003KT 4SM CLR 31/21 A3000 RMK AO2 SLP158 T03060211 PNO
 
KCGE - Cambridge-Dorchester Reg Airport, Maryland
Distance from station: SE 60mi, 97km
Updated: Tue, 27-Jul-2021 12:55pm EDT
Few Clouds
Few Clouds
 Wind from S
Wind: S 5 mph , 7 km/h
Temperature: 88°F , 31°C
Heat Index: 95°F , 35°C
Dew Point: 72°F , 22°C
Humidity: 59%
Barometer: 29.98 inHg , 1015.2 hPa
Clouds: Few Clouds
Visibility: 10 miles , 16 km
Cloud details: Few Clouds 5000 ft
Few Clouds 8500 ft
2021/07/27 16:55 KCGE 271655Z AUTO 18004KT 10SM FEW050 FEW085 31/22 A2998 RMK A01
K2W6 - St Marys Co Reg Airport, Maryland
Distance from station: SSE 64mi, 103km
Updated: Tue, 27-Jul-2021 12:55pm EDT
Partly Cloudy
Partly Cloudy
 Wind from calm
Wind: Calm
Temperature: 84°F , 29°C
Heat Index: 89°F , 32°C
Dew Point: 72°F , 22°C
Humidity: 66%
Barometer: 30.00 inHg , 1015.9 hPa
Clouds: Partly Cloudy
Visibility: 10 miles , 16 km
Cloud details: Partly Cloudy 3300 ft
Partly Cloudy 4100 ft
2021/07/27 16:55 K2W6 271655Z AUTO 00000KT 10SM SCT033 SCT041 29/22 A3000 RMK AO1
KHGR - Hagerstown Reg Airport, Maryland
Distance from station: WNW 64mi, 103km
Updated: Tue, 27-Jul-2021 12:53pm EDT
Clear
Clear
 Wind from NW
Wind: NW 7 mph , 11 km/h
Temperature: 90°F , 32°C
Dew Point: 54°F , 12°C
Humidity: 29%
Barometer: 30.02 inHg , 1016.6 hPa
Clouds: Clear
Visibility: 10 miles , 16 km
2021/07/27 16:53 KHGR 271653Z 32006KT 10SM CLR 32/12 A3002 RMK AO2 SLP167 T03220122 $
 
KLNS - Lancaster Airport, Pennsylvania
Distance from station: NNE 64mi, 104km
Updated: Tue, 27-Jul-2021 12:53pm EDT
Clear
Clear
 Wind from NW
Wind: NW 9 mph , 15 km/h
Temperature: 88°F , 31°C
Heat Index: 88°F , 31°C
Dew Point: 61°F , 16°C
Humidity: 40%
Barometer: 29.99 inHg , 1015.6 hPa
Clouds: Clear
Visibility: 10 miles , 16 km
2021/07/27 16:53 KLNS 271653Z 31008KT 10SM CLR 31/16 A2999 RMK AO2 SLP150 T03060156
KILG - New Castle Airport, Wilmington, Delaware
Distance from station: ENE 66mi, 106km
Updated: Tue, 27-Jul-2021 12:51pm EDT
Few Clouds
Few Clouds
 Wind from NW
Wind: NW 6 mph , 9 km/h
Temperature: 91°F , 33°C
Heat Index: 94°F , 34°C
Dew Point: 66°F , 19°C
Humidity: 44%
Barometer: 29.97 inHg , 1014.9 hPa
Clouds: Few Clouds
Visibility: 10 miles , 16 km
Cloud details: Few Clouds 7000 ft
2021/07/27 16:51 KILG 271651Z 32005KT 10SM FEW070 33/19 A2997 RMK AO2 SLP148 T03280194
KDOV - Dover Air Force Base, Delaware
Distance from station: E 66mi, 107km
Updated: Tue, 27-Jul-2021 12:56pm EDT
Partly Cloudy
Partly Cloudy
 Wind from E
Wind: E 3 mph , 6 km/h
Temperature: 90°F , 32°C
Heat Index: 96°F , 36°C
Dew Point: 70°F , 21°C
Humidity: 52%
Barometer: 29.96 inHg , 1014.6 hPa
Clouds: Partly Cloudy
Visibility: 10 miles , 16 km
Cloud details: Few Clouds 4600 ft
Few Clouds 5500 ft
Partly Cloudy 10000 ft
Partly Cloudy 17000 ft
Partly Cloudy 19000 ft
2021/07/27 16:56 KDOV 271656Z AUTO 10003KT 10SM FEW046 FEW055 SCT100 SCT170 SCT190 32/21 A2996 RMK AO2 SLP149 T03160205 $
 
KMDT - Harrisburg Intl Airport, Middletown, Pennsylvania
Distance from station: N 67mi, 107km
Updated: Tue, 27-Jul-2021 12:56pm EDT
Clear
Clear
 Wind from NW
Wind: NW 9 mph , 15 km/h
Temperature: 88°F , 31°C
Dew Point: 59°F , 15°C
Humidity: 38%
Barometer: 29.98 inHg , 1015.2 hPa
Clouds: Clear
Visibility: 10 miles , 16 km
2021/07/27 16:56 KMDT 271656Z 32008KT 10SM CLR 31/15 A2998 RMK AO2 SLP150 T03110150
KMQS - Chester Co Carlson Airport, Coatesville, Pennsylvania
Distance from station: NE 68mi, 109km
Updated: Tue, 27-Jul-2021 12:55pm EDT
Clear
Clear
 Wind from WNW
Wind: WNW 10 mph , 17 km/h
Temperature: 86°F , 30°C
Heat Index: 88°F , 31°C
Dew Point: 66°F , 19°C
Humidity: 52%
Barometer: 30.01 inHg , 1016.3 hPa
Clouds: Clear
Visibility: 10 miles , 16 km
2021/07/27 16:55 KMQS 271655Z AUTO 29009KT 10SM CLR 30/19 A3001 RMK AO2
KCXY - Capital City Airport, Harrisburg, Pennsylvania
Distance from station: N 68mi, 110km
Updated: Tue, 27-Jul-2021 12:56pm EDT
Clear
Clear
 Wind from N
Wind: N 9 mph , 15 km/h
Temperature: 90°F , 32°C
Dew Point: 57°F , 14°C
Humidity: 33%
Barometer: 29.99 inHg , 1015.6 hPa
Clouds: Clear
Visibility: 10 miles , 16 km
2021/07/27 16:56 KCXY 271656Z 35008KT 10SM CLR 32/14 A2999 RMK AO2 SLP153 T03220139
 
KNHK - Patuxent River NAS, Maryland
Distance from station: SE 69mi, 111km
Updated: Tue, 27-Jul-2021 12:52pm EDT
Few Clouds
Few Clouds
 Wind from E
Wind: E 7 mph , 11 km/h
Temperature: 88°F , 31°C
Heat Index: 98°F , 37°C
Dew Point: 75°F , 24°C
Humidity: 66%
Barometer: 29.98 inHg , 1015.2 hPa
Clouds: Few Clouds
Visibility: 9 miles , 14 km
Cloud details: Few Clouds 3500 ft
Few Clouds 10000 ft
2021/07/27 16:52 KNHK 271652Z COR 10006KT 9SM FEW035 FEW100 31/24 A2998 RMK AO2 SLP153 T03110239 VISNO RY24 $
KMRB - Eastern WV Reg Airport/Shepherd Field, Martinsburg, West Virginia
Distance from station: W 70mi, 112km
Updated: Tue, 27-Jul-2021 12:53pm EDT
Clear
Clear
 Wind from varies
Wind: varies 7 mph , 11 km/h
Temperature: 88°F , 31°C
Dew Point: 55°F , 13°C
Humidity: 33%
Barometer: 30.01 inHg , 1016.3 hPa
Clouds: Clear
Visibility: 10 miles , 16 km
2021/07/27 16:53 KMRB 271653Z VRB06KT 10SM CLR 31/13 A3001 RMK AO2 SLP157 T03110133
KHWY - Warrenton-Fauquier Airport, Warrenton, Virginia
Distance from station: SW 71mi, 114km
Updated: Tue, 27-Jul-2021 12:55pm EDT
Mostly Cloudy
Mostly Cloudy
 Wind from calm
Wind: Calm
Temperature: 90°F , 32°C
Heat Index: 93°F , 34°C
Dew Point: 66°F , 19°C
Humidity: 46%
Barometer: 30.00 inHg , 1015.9 hPa
Clouds: Mostly Cloudy
Visibility: 10 miles , 16 km
Cloud details: Partly Cloudy 4800 ft
Mostly Cloudy 7000 ft
Mostly Cloudy 7500 ft
2021/07/27 16:55 KHWY 271655Z AUTO 00000KT 10SM SCT048 BKN070 BKN075 32/19 A3000 RMK AO2 T03230191
 
KRMN - Stafford Regional Airport, Virginia
Distance from station: SW 71mi, 114km
Updated: Tue, 27-Jul-2021 12:55pm EDT
Clear
Clear
 Wind from NE
Wind: NE 5 mph , 7 km/h
Temperature: 90°F , 32°C
Heat Index: 92°F , 33°C
Dew Point: 64°F , 18°C
Humidity: 43%
Barometer: 30.04 inHg , 1017.3 hPa
Clouds: Clear
Visibility: 10 miles , 16 km
2021/07/27 16:55 KRMN 271655Z AUTO 04004KT 10SM CLR 32/18 A3004 RMK AO2 T03230182
KNUI - Webster Naval, St Inigoes, Maryland
Distance from station: S 76mi, 123km
Updated: Tue, 27-Jul-2021 12:53pm EDT
Mostly Cloudy
Mostly Cloudy
 Wind from SW
Wind: SW 6 mph , 9 km/h
Temperature: 90°F , 32°C
Heat Index: 101°F , 38°C
Dew Point: 75°F , 24°C
Humidity: 63%
Barometer: 29.98 inHg , 1015.2 hPa
Clouds: Mostly Cloudy
Visibility: 10 miles , 16 km
Cloud details: Partly Cloudy 2100 ft
Mostly Cloudy 3400 ft
2021/07/27 16:53 KNUI 271653Z AUTO 23005KT 10SM SCT021 BKN034 32/24 A2998 RMK AO2 SLP151 T03220244
KEZF - Fredericksburg/Shan, Virginia
Distance from station: SSW 78mi, 126km
Updated: Tue, 27-Jul-2021 12:55pm EDT
Partly Cloudy
Partly Cloudy
 Wind from ENE
Wind: ENE 7 mph , 11 km/h
Temperature: 88°F , 31°C
Heat Index: 92°F , 33°C
Dew Point: 68°F , 20°C
Humidity: 52%
Barometer: 29.98 inHg , 1015.2 hPa
Clouds: Partly Cloudy
Visibility: 10 miles , 16 km
Cloud details: Partly Cloudy 7500 ft
2021/07/27 16:55 KEZF 271655Z AUTO 07006KT 10SM SCT075 31/20 A2998 RMK AO2 T03130198
 
KOKV - Winchester Regional Airport, Virginia
Distance from station: W 78mi, 126km
Updated: Tue, 27-Jul-2021 12:55pm EDT
Partly Cloudy
Partly Cloudy
 Wind from NW
Wind: NW 10 mph , 17 km/h
Temperature: 88°F , 31°C
Dew Point: 59°F , 15°C
Humidity: 38%
Barometer: 30.02 inHg , 1016.6 hPa
Clouds: Partly Cloudy
Visibility: 10 miles , 16 km
Cloud details: Partly Cloudy 6000 ft
2021/07/27 16:55 KOKV 271655Z AUTO 31009KT 280V340 10SM SCT060 31/15 A3002 RMK AO2
KCJR - Culpeper Regional Airport, Virginia
Distance from station: SW 79mi, 128km
Updated: Tue, 27-Jul-2021 12:55pm EDT
Mostly Cloudy
Mostly Cloudy
 Wind from NE
Wind: NE 5 mph , 7 km/h
Temperature: 91°F , 33°C
Dew Point: 63°F , 17°C
Humidity: 38%
Barometer: 30.01 inHg , 1016.3 hPa
Clouds: Mostly Cloudy
Visibility: 10 miles , 16 km
Cloud details: Partly Cloudy 5000 ft
Mostly Cloudy 7000 ft
2021/07/27 16:55 KCJR 271655Z AUTO 04004KT 10SM SCT050 BKN070 33/17 A3001 RMK AO2 T03250172
canadians